Callander, Canada
Current Conditions -  °F | °C
As of 8:00 PM on Thursday 27 Nov 2014 (Local Time) from CYYB Reporting Station
Light Snow Light Snow  
Wind Chill: -16°   Ceiling: 2700
Heat Index: -10°   Visibility: 10mi
Dew Point: -10°   Wind: 7mph
Humidity: 100%   Direction: 20°NNE
Pressure: 30.06"   Gusts: NA
Location:  46.22°N, 79.36°W
Report Text: CYYB 280100Z 02006KT 10SM -SN BKN027 M10/M10 A3006 RMK SC6 SLP205
Loading
Personal Weather Stations






























Interactive Weather Map New forecast layout! Learn more

10-Day Weather Forecast

Advertisements
Track Severe Weather on mobile